Terminal Aerodrome Forecast
Issued by NWS

Home | Current Version | Previous Version | Text Only | Print | Product List | Glossary On
Versions: 1 2 3 4 5 6 7
000
FTUS45 KREV 272300
TAFMMH
TAF
KMMH 272320Z 2800/2824 12007KT P6SM BKN200
     FM280200 VRB04KT P6SM BKN200
     FM282000 26009KT P6SM SCT200
      AMD NOT SKED 2802/2814=

USA.gov is the U.S. government's official web portal to all federal, state and local government web resources and services.